Main page
METAR-TAF:

METAR-TAF

Airports :

Seville Airport

Seville, Spain

latitude: 37-25N, longitude: 005-54W, elevation: 34 m

Current weather observation

The report was made 22 minutes ago, at 16:00 UTC
Wind 4 kt from the West/Northwest, varying between West/Southwest and Northwest
Temperature 15°C
Humidity 59%
Pressure 1017 hPa
Visibility 10 km or more
no clouds below 1500 m and no cumulonimbus

METAR: LEZL 171600Z 29004KT 240V320 CAVOK 15/07 Q1017 NOSIG

Time: 17:22 (16:22 UTC)

Forecast

The report was made 2 hours and 22 minutes ago, at 14:00 UTC
Forecast valid from 17 at 15 UTC to 18 at 15 UTC
Wind 5 kt from the North/Northeast
Visibility 10 km or more
Scattered clouds at a height of 4000 ft

TAF: LEZL 171400Z 1715/1815 02005KT 9999 SCT040 TX16/1715Z TN03/1807Z

Weather observations and forecasts of more than 4000 airports (METAR and TAF reports).

The available stations are represented by yellow and red dots on the map.

Hover mouse over dot to see the name of the station.

Then click to see weather observations and forecasts.

To change the map : click on the green buttons with a black cross to zoom in, on the green button with a dash to zoom out, or on the green arrows for adjacent maps.


METAR-TAF: